sensor_id;sensor_type;location;lat;lon;timestamp;pressure;altitude;pressure_sealevel;temperature;humidity
21547;BME280;41275;51.912;4.388;2024-03-07T00:02:24;102608.56;;;12.88;50.61
21547;BME280;41275;51.912;4.388;2024-03-07T00:07:45;102614.47;;;12.84;50.73
21547;BME280;41275;51.912;4.388;2024-03-07T00:13:07;102612.41;;;12.79;50.88
21547;BME280;41275;51.912;4.388;2024-03-07T00:18:29;102611.16;;;12.75;50.91
21547;BME280;41275;51.912;4.388;2024-03-07T00:23:50;102615.63;;;12.68;51.07
21547;BME280;41275;51.912;4.388;2024-03-07T00:29:11;102616.00;;;12.65;51.11
21547;BME280;41275;51.912;4.388;2024-03-07T00:34:33;102620.06;;;12.61;50.91
21547;BME280;41275;51.912;4.388;2024-03-07T00:39:54;102616.38;;;12.55;51.21
21547;BME280;41275;51.912;4.388;2024-03-07T00:45:15;102617.56;;;12.52;51.16
21547;BME280;41275;51.912;4.388;2024-03-07T00:50:37;102601.41;;;12.47;51.24
21547;BME280;41275;51.912;4.388;2024-03-07T00:55:58;102603.22;;;12.40;50.96
21547;BME280;41275;51.912;4.388;2024-03-07T01:01:20;102602.34;;;12.33;51.37
21547;BME280;41275;51.912;4.388;2024-03-07T01:06:41;102599.25;;;12.29;51.34
21547;BME280;41275;51.912;4.388;2024-03-07T01:12:02;102590.25;;;12.24;51.59
21547;BME280;41275;51.912;4.388;2024-03-07T01:17:26;102596.75;;;12.21;51.71
21547;BME280;41275;51.912;4.388;2024-03-07T01:22:48;102599.38;;;12.15;51.90
21547;BME280;41275;51.912;4.388;2024-03-07T01:28:09;102589.50;;;12.09;52.01
21547;BME280;41275;51.912;4.388;2024-03-07T01:33:33;102584.34;;;12.00;52.03
21547;BME280;41275;51.912;4.388;2024-03-07T01:38:54;102582.47;;;11.94;51.99
21547;BME280;41275;51.912;4.388;2024-03-07T01:44:16;102578.75;;;11.89;52.07
21547;BME280;41275;51.912;4.388;2024-03-07T01:49:37;102575.88;;;11.84;52.23
21547;BME280;41275;51.912;4.388;2024-03-07T01:55:00;102574.56;;;11.79;52.07
21547;BME280;41275;51.912;4.388;2024-03-07T02:00:21;102567.38;;;11.73;52.40
21547;BME280;41275;51.912;4.388;2024-03-07T02:05:43;102566.75;;;11.71;52.60
21547;BME280;41275;51.912;4.388;2024-03-07T02:11:04;102562.41;;;11.64;52.45
21547;BME280;41275;51.912;4.388;2024-03-07T02:16:26;102555.63;;;11.61;52.80
21547;BME280;41275;51.912;4.388;2024-03-07T02:21:47;102554.38;;;11.57;52.62
21547;BME280;41275;51.912;4.388;2024-03-07T02:27:09;102545.38;;;11.51;52.84
21547;BME280;41275;51.912;4.388;2024-03-07T02:32:31;102545.09;;;11.46;52.79
21547;BME280;41275;51.912;4.388;2024-03-07T02:37:52;102542.41;;;11.40;53.05
21547;BME280;41275;51.912;4.388;2024-03-07T02:43:14;102536.38;;;11.31;53.10
21547;BME280;41275;51.912;4.388;2024-03-07T02:48:36;102531.66;;;11.26;53.10
21547;BME280;41275;51.912;4.388;2024-03-07T02:53:58;102535.91;;;11.21;53.06
21547;BME280;41275;51.912;4.388;2024-03-07T02:59:19;102521.38;;;11.17;53.21
21547;BME280;41275;51.912;4.388;2024-03-07T03:04:40;102520.94;;;11.13;53.20
21547;BME280;41275;51.912;4.388;2024-03-07T03:10:02;102533.75;;;11.10;53.18
21547;BME280;41275;51.912;4.388;2024-03-07T03:15:26;102530.63;;;11.06;53.49
21547;BME280;41275;51.912;4.388;2024-03-07T03:20:48;102519.16;;;10.99;53.72
21547;BME280;41275;51.912;4.388;2024-03-07T03:26:09;102515.44;;;10.93;53.33
21547;BME280;41275;51.912;4.388;2024-03-07T03:31:30;102519.06;;;10.92;53.54
21547;BME280;41275;51.912;4.388;2024-03-07T03:36:51;102509.03;;;10.88;53.76
21547;BME280;41275;51.912;4.388;2024-03-07T03:42:13;102512.91;;;10.85;53.98
21547;BME280;41275;51.912;4.388;2024-03-07T03:47:35;102508.13;;;10.80;53.81
21547;BME280;41275;51.912;4.388;2024-03-07T03:52:59;102509.72;;;10.75;54.25
21547;BME280;41275;51.912;4.388;2024-03-07T03:58:22;102499.84;;;10.69;54.06
21547;BME280;41275;51.912;4.388;2024-03-07T04:03:43;102498.56;;;10.65;54.09
21547;BME280;41275;51.912;4.388;2024-03-07T04:09:07;102498.78;;;10.63;54.22
21547;BME280;41275;51.912;4.388;2024-03-07T04:14:28;102496.50;;;10.60;54.06
21547;BME280;41275;51.912;4.388;2024-03-07T04:19:53;102493.22;;;10.58;54.29
21547;BME280;41275;51.912;4.388;2024-03-07T04:25:15;102505.00;;;10.55;54.21
21547;BME280;41275;51.912;4.388;2024-03-07T04:30:36;102493.94;;;10.52;54.27
21547;BME280;41275;51.912;4.388;2024-03-07T04:35:57;102496.16;;;10.48;54.49
21547;BME280;41275;51.912;4.388;2024-03-07T04:41:18;102494.25;;;10.42;54.50
21547;BME280;41275;51.912;4.388;2024-03-07T04:46:39;102495.06;;;10.43;54.55
21547;BME280;41275;51.912;4.388;2024-03-07T04:52:03;102486.47;;;10.41;54.63
21547;BME280;41275;51.912;4.388;2024-03-07T04:57:25;102487.50;;;10.40;54.83
21547;BME280;41275;51.912;4.388;2024-03-07T05:02:49;102481.03;;;10.42;54.42
21547;BME280;41275;51.912;4.388;2024-03-07T05:08:13;102477.72;;;10.40;54.73
21547;BME280;41275;51.912;4.388;2024-03-07T05:13:34;102483.84;;;10.41;54.33
21547;BME280;41275;51.912;4.388;2024-03-07T05:18:56;102484.22;;;10.38;54.59
21547;BME280;41275;51.912;4.388;2024-03-07T05:24:20;102489.69;;;10.36;54.87
21547;BME280;41275;51.912;4.388;2024-03-07T05:29:41;102491.50;;;10.36;54.68
21547;BME280;41275;51.912;4.388;2024-03-07T05:35:03;102479.91;;;10.37;54.84
21547;BME280;41275;51.912;4.388;2024-03-07T05:40:25;102479.75;;;10.38;54.83
21547;BME280;41275;51.912;4.388;2024-03-07T05:45:46;102493.44;;;10.42;54.61
21547;BME280;41275;51.912;4.388;2024-03-07T05:51:07;102488.75;;;10.44;54.84
21547;BME280;41275;51.912;4.388;2024-03-07T05:56:28;102485.75;;;10.47;55.16
21547;BME280;41275;51.912;4.388;2024-03-07T06:01:49;102477.00;;;10.46;54.84
21547;BME280;41275;51.912;4.388;2024-03-07T06:07:12;102478.81;;;10.46;54.96
21547;BME280;41275;51.912;4.388;2024-03-07T06:12:33;102482.09;;;10.48;54.71
21547;BME280;41275;51.912;4.388;2024-03-07T06:17:54;102469.88;;;10.47;54.71
21547;BME280;41275;51.912;4.388;2024-03-07T06:23:15;102475.97;;;10.47;54.69
21547;BME280;41275;51.912;4.388;2024-03-07T06:28:40;102474.97;;;10.48;54.83
21547;BME280;41275;51.912;4.388;2024-03-07T06:34:02;102472.97;;;10.50;54.44
21547;BME280;41275;51.912;4.388;2024-03-07T06:39:23;102471.59;;;10.54;54.91
21547;BME280;41275;51.912;4.388;2024-03-07T06:44:46;102479.63;;;10.61;54.70
21547;BME280;41275;51.912;4.388;2024-03-07T06:50:07;102484.16;;;10.67;54.84
21547;BME280;41275;51.912;4.388;2024-03-07T06:55:30;102475.84;;;10.70;54.53
21547;BME280;41275;51.912;4.388;2024-03-07T07:00:52;102480.00;;;10.79;54.23
21547;BME280;41275;51.912;4.388;2024-03-07T07:06:15;102479.28;;;10.86;53.96
21547;BME280;41275;51.912;4.388;2024-03-07T07:11:36;102478.16;;;10.95;54.00
21547;BME280;41275;51.912;4.388;2024-03-07T07:16:58;102478.66;;;11.05;54.26
21547;BME280;41275;51.912;4.388;2024-03-07T07:22:22;102477.53;;;11.14;53.92
21547;BME280;41275;51.912;4.388;2024-03-07T07:27:44;102476.38;;;11.23;53.21
21547;BME280;41275;51.912;4.388;2024-03-07T07:33:06;102476.06;;;11.33;53.50
21547;BME280;41275;51.912;4.388;2024-03-07T07:38:27;102473.28;;;11.41;53.46
21547;BME280;41275;51.912;4.388;2024-03-07T07:43:48;102479.47;;;11.48;53.03
21547;BME280;41275;51.912;4.388;2024-03-07T07:49:09;102473.00;;;11.58;52.54
21547;BME280;41275;51.912;4.388;2024-03-07T07:54:31;102467.16;;;11.69;52.48
21547;BME280;41275;51.912;4.388;2024-03-07T07:59:52;102459.16;;;11.84;52.31
21547;BME280;41275;51.912;4.388;2024-03-07T08:05:13;102470.47;;;11.99;52.17
21547;BME280;41275;51.912;4.388;2024-03-07T08:10:39;102462.56;;;12.12;51.30
21547;BME280;41275;51.912;4.388;2024-03-07T08:16:02;102461.84;;;12.32;51.25
21547;BME280;41275;51.912;4.388;2024-03-07T08:21:24;102464.53;;;12.45;51.00
21547;BME280;41275;51.912;4.388;2024-03-07T08:26:45;102456.59;;;12.51;50.70
21547;BME280;41275;51.912;4.388;2024-03-07T08:32:07;102460.75;;;12.67;50.37
21547;BME280;41275;51.912;4.388;2024-03-07T08:37:29;102451.78;;;12.88;50.05
21547;BME280;41275;51.912;4.388;2024-03-07T08:42:51;102448.56;;;13.06;49.38
21547;BME280;41275;51.912;4.388;2024-03-07T08:48:13;102443.88;;;13.21;48.88
21547;BME280;41275;51.912;4.388;2024-03-07T08:53:35;102442.25;;;13.47;47.79
21547;BME280;41275;51.912;4.388;2024-03-07T08:58:57;102443.69;;;13.56;47.61
21547;BME280;41275;51.912;4.388;2024-03-07T09:04:18;102440.38;;;13.74;46.55
21547;BME280;41275;51.912;4.388;2024-03-07T09:09:39;102433.78;;;13.90;45.99
21547;BME280;41275;51.912;4.388;2024-03-07T09:15:01;102436.84;;;14.00;45.31
21547;BME280;41275;51.912;4.388;2024-03-07T09:20:22;102426.59;;;13.97;45.34
21547;BME280;41275;51.912;4.388;2024-03-07T09:25:44;102422.47;;;14.08;45.10
21547;BME280;41275;51.912;4.388;2024-03-07T09:31:07;102427.31;;;14.31;44.51
21547;BME280;41275;51.912;4.388;2024-03-07T09:36:29;102422.13;;;14.42;43.73
21547;BME280;41275;51.912;4.388;2024-03-07T09:41:50;102426.78;;;14.54;43.61
21547;BME280;41275;51.912;4.388;2024-03-07T09:47:13;102413.69;;;14.52;43.24
21547;BME280;41275;51.912;4.388;2024-03-07T09:52:34;102413.81;;;14.64;43.30
21547;BME280;41275;51.912;4.388;2024-03-07T09:57:58;102408.88;;;14.67;42.85
21547;BME280;41275;51.912;4.388;2024-03-07T10:03:22;102405.53;;;14.79;42.70
21547;BME280;41275;51.912;4.388;2024-03-07T10:08:48;102401.72;;;14.93;42.58
21547;BME280;41275;51.912;4.388;2024-03-07T10:14:09;102400.06;;;14.98;41.90
21547;BME280;41275;51.912;4.388;2024-03-07T10:19:31;102396.34;;;15.00;41.72
21547;BME280;41275;51.912;4.388;2024-03-07T10:24:53;102392.66;;;15.26;41.12
21547;BME280;41275;51.912;4.388;2024-03-07T10:30:16;102397.19;;;15.25;40.76
21547;BME280;41275;51.912;4.388;2024-03-07T10:35:47;102387.50;;;15.49;40.68
21547;BME280;41275;51.912;4.388;2024-03-07T10:41:10;102378.97;;;15.40;40.52
21547;BME280;41275;51.912;4.388;2024-03-07T10:46:32;102371.41;;;15.56;40.38
21547;BME280;41275;51.912;4.388;2024-03-07T10:52:16;102377.28;;;15.46;39.71
21547;BME280;41275;51.912;4.388;2024-03-07T10:57:55;102362.94;;;15.40;39.61
21547;BME280;41275;51.912;4.388;2024-03-07T11:03:19;102369.22;;;15.53;39.16
21547;BME280;41275;51.912;4.388;2024-03-07T11:08:41;102359.47;;;15.65;38.57
21547;BME280;41275;51.912;4.388;2024-03-07T11:14:04;102358.41;;;15.66;38.62
21547;BME280;41275;51.912;4.388;2024-03-07T11:19:30;102350.53;;;15.71;38.14
21547;BME280;41275;51.912;4.388;2024-03-07T11:25:05;102348.25;;;15.75;38.03
21547;BME280;41275;51.912;4.388;2024-03-07T11:30:31;102335.09;;;15.91;38.16
21547;BME280;41275;51.912;4.388;2024-03-07T11:35:52;102332.03;;;16.06;37.93
21547;BME280;41275;51.912;4.388;2024-03-07T11:41:14;102324.03;;;16.06;37.72
21547;BME280;41275;51.912;4.388;2024-03-07T11:46:35;102324.31;;;16.16;37.44
21547;BME280;41275;51.912;4.388;2024-03-07T19:11:55;101980.41;;;12.71;45.57
21547;BME280;41275;51.912;4.388;2024-03-07T19:17:16;101973.06;;;12.66;45.71
21547;BME280;41275;51.912;4.388;2024-03-07T19:22:40;101978.19;;;12.61;46.07
21547;BME280;41275;51.912;4.388;2024-03-07T19:28:02;101974.78;;;12.54;45.88
21547;BME280;41275;51.912;4.388;2024-03-07T19:33:28;101980.09;;;12.47;46.37
21547;BME280;41275;51.912;4.388;2024-03-07T19:38:49;101972.56;;;12.38;46.52
21547;BME280;41275;51.912;4.388;2024-03-07T19:44:10;101967.31;;;12.31;46.34
21547;BME280;41275;51.912;4.388;2024-03-07T19:49:31;101972.63;;;12.24;46.77
21547;BME280;41275;51.912;4.388;2024-03-07T19:54:53;101966.72;;;12.16;46.74
21547;BME280;41275;51.912;4.388;2024-03-07T20:00:15;101965.72;;;12.10;47.00
21547;BME280;41275;51.912;4.388;2024-03-07T20:05:36;101962.28;;;12.03;47.10
21547;BME280;41275;51.912;4.388;2024-03-07T20:10:58;101961.25;;;11.97;46.96
21547;BME280;41275;51.912;4.388;2024-03-07T20:16:19;101961.88;;;11.93;46.99
21547;BME280;41275;51.912;4.388;2024-03-07T20:21:40;101955.59;;;11.87;47.34
21547;BME280;41275;51.912;4.388;2024-03-07T20:27:01;101953.72;;;11.81;47.38
21547;BME280;41275;51.912;4.388;2024-03-07T20:32:22;101948.63;;;11.73;47.33
21547;BME280;41275;51.912;4.388;2024-03-07T20:37:46;101950.88;;;11.69;47.31
21547;BME280;41275;51.912;4.388;2024-03-07T20:43:09;101955.19;;;11.64;47.56
21547;BME280;41275;51.912;4.388;2024-03-07T20:48:31;101949.47;;;11.60;47.52
21547;BME280;41275;51.912;4.388;2024-03-07T20:53:53;101947.44;;;11.55;47.30
21547;BME280;41275;51.912;4.388;2024-03-07T20:59:16;101944.38;;;11.52;47.48
21547;BME280;41275;51.912;4.388;2024-03-07T21:04:38;101937.63;;;11.49;47.39
21547;BME280;41275;51.912;4.388;2024-03-07T21:09:59;101944.38;;;11.45;47.70
21547;BME280;41275;51.912;4.388;2024-03-07T21:15:21;101933.56;;;11.40;47.67
21547;BME280;41275;51.912;4.388;2024-03-07T21:20:42;101933.16;;;11.37;47.54
21547;BME280;41275;51.912;4.388;2024-03-07T21:26:03;101937.03;;;11.34;47.58
21547;BME280;41275;51.912;4.388;2024-03-07T21:31:25;101926.00;;;11.30;47.95
21547;BME280;41275;51.912;4.388;2024-03-07T21:36:47;101922.56;;;11.30;47.87
21547;BME280;41275;51.912;4.388;2024-03-07T21:42:09;101918.69;;;11.26;48.00
21547;BME280;41275;51.912;4.388;2024-03-07T21:47:33;101909.28;;;11.23;47.80
21547;BME280;41275;51.912;4.388;2024-03-07T21:52:58;101911.75;;;11.18;48.15
21547;BME280;41275;51.912;4.388;2024-03-07T21:58:19;101902.56;;;11.14;48.02
21547;BME280;41275;51.912;4.388;2024-03-07T22:03:41;101912.75;;;11.11;48.15
21547;BME280;41275;51.912;4.388;2024-03-07T22:09:02;101896.66;;;11.05;48.11
21547;BME280;41275;51.912;4.388;2024-03-07T22:14:24;101886.69;;;11.01;48.44
21547;BME280;41275;51.912;4.388;2024-03-07T22:19:45;101887.69;;;11.00;48.37
21547;BME280;41275;51.912;4.388;2024-03-07T22:25:06;101889.09;;;10.96;48.45
21547;BME280;41275;51.912;4.388;2024-03-07T22:30:28;101880.75;;;10.92;48.49
21547;BME280;41275;51.912;4.388;2024-03-07T22:35:49;101867.13;;;10.89;48.52
21547;BME280;41275;51.912;4.388;2024-03-07T22:41:12;101877.31;;;10.85;48.46
21547;BME280;41275;51.912;4.388;2024-03-07T22:46:34;101868.13;;;10.81;48.55
21547;BME280;41275;51.912;4.388;2024-03-07T22:51:55;101860.78;;;10.76;48.46
21547;BME280;41275;51.912;4.388;2024-03-07T22:57:17;101852.63;;;10.71;48.47
21547;BME280;41275;51.912;4.388;2024-03-07T23:02:39;101846.09;;;10.67;48.73
21547;BME280;41275;51.912;4.388;2024-03-07T23:08:00;101843.84;;;10.64;48.54
21547;BME280;41275;51.912;4.388;2024-03-07T23:13:21;101850.38;;;10.62;48.65
21547;BME280;41275;51.912;4.388;2024-03-07T23:18:43;101841.22;;;10.57;48.45
21547;BME280;41275;51.912;4.388;2024-03-07T23:24:05;101837.53;;;10.52;48.58
21547;BME280;41275;51.912;4.388;2024-03-07T23:29:27;101829.19;;;10.48;48.70
21547;BME280;41275;51.912;4.388;2024-03-07T23:34:50;101821.44;;;10.47;48.72
21547;BME280;41275;51.912;4.388;2024-03-07T23:40:11;101819.19;;;10.44;48.48
21547;BME280;41275;51.912;4.388;2024-03-07T23:45:34;101817.16;;;10.39;48.75
21547;BME280;41275;51.912;4.388;2024-03-07T23:50:55;101818.56;;;10.35;48.67
21547;BME280;41275;51.912;4.388;2024-03-07T23:56:16;101811.03;;;10.32;48.66
